sensor_id;sensor_type;location;lat;lon;timestamp;P1;durP1;ratioP1;P2;durP2;ratioP2
17235;SDS011;8734;59.272;17.780;2022-11-18T00:01:27;9.03;;;4.23;;
17235;SDS011;8734;59.272;17.780;2022-11-18T00:03:57;11.97;;;4.53;;
17235;SDS011;8734;59.272;17.780;2022-11-18T00:06:26;11.07;;;4.20;;
17235;SDS011;8734;59.272;17.780;2022-11-18T00:08:56;11.27;;;4.27;;
17235;SDS011;8734;59.272;17.780;2022-11-18T00:11:25;13.07;;;5.23;;
17235;SDS011;8734;59.272;17.780;2022-11-18T00:14:13;13.23;;;4.03;;
17235;SDS011;8734;59.272;17.780;2022-11-18T00:16:46;9.70;;;4.37;;
17235;SDS011;8734;59.272;17.780;2022-11-18T00:19:17;8.93;;;4.63;;
17235;SDS011;8734;59.272;17.780;2022-11-18T00:21:47;9.73;;;4.50;;
17235;SDS011;8734;59.272;17.780;2022-11-18T00:24:15;10.07;;;3.83;;
17235;SDS011;8734;59.272;17.780;2022-11-18T00:26:43;9.20;;;4.17;;
17235;SDS011;8734;59.272;17.780;2022-11-18T00:29:12;11.20;;;4.23;;
17235;SDS011;8734;59.272;17.780;2022-11-18T00:31:40;11.93;;;4.70;;
17235;SDS011;8734;59.272;17.780;2022-11-18T00:34:09;10.23;;;4.47;;
17235;SDS011;8734;59.272;17.780;2022-11-18T00:36:41;14.07;;;4.47;;
17235;SDS011;8734;59.272;17.780;2022-11-18T00:39:11;11.57;;;4.50;;
17235;SDS011;8734;59.272;17.780;2022-11-18T00:41:41;12.73;;;4.50;;
17235;SDS011;8734;59.272;17.780;2022-11-18T00:44:41;12.30;;;4.03;;
17235;SDS011;8734;59.272;17.780;2022-11-18T00:47:09;10.20;;;4.10;;
17235;SDS011;8734;59.272;17.780;2022-11-18T00:49:38;11.17;;;4.23;;
17235;SDS011;8734;59.272;17.780;2022-11-18T00:52:08;8.93;;;4.27;;
17235;SDS011;8734;59.272;17.780;2022-11-18T00:54:36;9.67;;;4.23;;
17235;SDS011;8734;59.272;17.780;2022-11-18T00:57:05;10.37;;;3.93;;
17235;SDS011;8734;59.272;17.780;2022-11-18T00:59:34;11.07;;;4.07;;
17235;SDS011;8734;59.272;17.780;2022-11-18T01:02:02;12.43;;;4.40;;
17235;SDS011;8734;59.272;17.780;2022-11-18T01:04:31;10.23;;;4.10;;
17235;SDS011;8734;59.272;17.780;2022-11-18T01:06:59;14.10;;;4.87;;
17235;SDS011;8734;59.272;17.780;2022-11-18T01:09:29;13.00;;;4.70;;
17235;SDS011;8734;59.272;17.780;2022-11-18T01:11:57;12.03;;;4.10;;
17235;SDS011;8734;59.272;17.780;2022-11-18T01:14:43;9.40;;;4.37;;
17235;SDS011;8734;59.272;17.780;2022-11-18T01:17:12;9.73;;;3.70;;
17235;SDS011;8734;59.272;17.780;2022-11-18T01:19:41;10.80;;;4.10;;
17235;SDS011;8734;59.272;17.780;2022-11-18T01:22:09;9.83;;;4.00;;
17235;SDS011;8734;59.272;17.780;2022-11-18T01:24:39;9.57;;;4.10;;
17235;SDS011;8734;59.272;17.780;2022-11-18T01:27:07;8.63;;;3.47;;
17235;SDS011;8734;59.272;17.780;2022-11-18T01:29:35;11.40;;;4.40;;
17235;SDS011;8734;59.272;17.780;2022-11-18T01:32:03;13.17;;;4.10;;
17235;SDS011;8734;59.272;17.780;2022-11-18T01:34:50;14.00;;;4.57;;
17235;SDS011;8734;59.272;17.780;2022-11-18T01:37:19;11.20;;;4.23;;
17235;SDS011;8734;59.272;17.780;2022-11-18T01:39:48;10.27;;;4.07;;
17235;SDS011;8734;59.272;17.780;2022-11-18T01:42:17;16.80;;;4.20;;
17235;SDS011;8734;59.272;17.780;2022-11-18T01:45:01;10.90;;;3.87;;
17235;SDS011;8734;59.272;17.780;2022-11-18T01:47:36;12.60;;;4.00;;
17235;SDS011;8734;59.272;17.780;2022-11-18T01:50:08;11.40;;;4.27;;
17235;SDS011;8734;59.272;17.780;2022-11-18T01:52:38;10.80;;;3.50;;
17235;SDS011;8734;59.272;17.780;2022-11-18T01:55:10;11.77;;;3.70;;
17235;SDS011;8734;59.272;17.780;2022-11-18T01:57:42;12.83;;;3.93;;
17235;SDS011;8734;59.272;17.780;2022-11-18T02:00:12;6.50;;;3.10;;
17235;SDS011;8734;59.272;17.780;2022-11-18T02:02:41;9.67;;;2.83;;
17235;SDS011;8734;59.272;17.780;2022-11-18T02:05:10;8.67;;;2.97;;
17235;SDS011;8734;59.272;17.780;2022-11-18T02:07:40;9.53;;;3.30;;
17235;SDS011;8734;59.272;17.780;2022-11-18T02:10:16;6.20;;;2.50;;
17235;SDS011;8734;59.272;17.780;2022-11-18T02:12:48;8.73;;;3.00;;
17235;SDS011;8734;59.272;17.780;2022-11-18T02:15:17;6.40;;;2.60;;
17235;SDS011;8734;59.272;17.780;2022-11-18T02:18:00;7.77;;;3.07;;
17235;SDS011;8734;59.272;17.780;2022-11-18T02:20:34;12.20;;;3.60;;
17235;SDS011;8734;59.272;17.780;2022-11-18T02:23:16;9.50;;;2.87;;
17235;SDS011;8734;59.272;17.780;2022-11-18T02:26:23;6.90;;;3.00;;
17235;SDS011;8734;59.272;17.780;2022-11-18T02:29:19;9.17;;;3.00;;
17235;SDS011;8734;59.272;17.780;2022-11-18T02:31:54;9.17;;;3.13;;
17235;SDS011;8734;59.272;17.780;2022-11-18T02:34:30;6.77;;;2.90;;
17235;SDS011;8734;59.272;17.780;2022-11-18T02:37:04;6.10;;;2.73;;
17235;SDS011;8734;59.272;17.780;2022-11-18T02:39:40;8.83;;;3.17;;
17235;SDS011;8734;59.272;17.780;2022-11-18T02:42:14;7.13;;;3.10;;
17235;SDS011;8734;59.272;17.780;2022-11-18T02:44:46;8.57;;;3.00;;
17235;SDS011;8734;59.272;17.780;2022-11-18T02:47:19;5.63;;;2.47;;
17235;SDS011;8734;59.272;17.780;2022-11-18T02:49:50;5.83;;;2.97;;
17235;SDS011;8734;59.272;17.780;2022-11-18T02:52:22;5.23;;;3.30;;
17235;SDS011;8734;59.272;17.780;2022-11-18T02:54:52;6.93;;;2.67;;
17235;SDS011;8734;59.272;17.780;2022-11-18T02:57:22;5.63;;;2.00;;
17235;SDS011;8734;59.272;17.780;2022-11-18T02:59:53;5.93;;;2.57;;
17235;SDS011;8734;59.272;17.780;2022-11-18T03:02:21;6.73;;;2.60;;
17235;SDS011;8734;59.272;17.780;2022-11-18T03:04:50;8.47;;;2.80;;
17235;SDS011;8734;59.272;17.780;2022-11-18T03:07:24;13.43;;;2.47;;
17235;SDS011;8734;59.272;17.780;2022-11-18T03:09:56;3.23;;;1.87;;
17235;SDS011;8734;59.272;17.780;2022-11-18T03:12:30;7.17;;;2.33;;
17235;SDS011;8734;59.272;17.780;2022-11-18T03:15:10;8.67;;;2.33;;
17235;SDS011;8734;59.272;17.780;2022-11-18T03:17:47;5.07;;;2.17;;
17235;SDS011;8734;59.272;17.780;2022-11-18T03:20:23;9.53;;;2.33;;
17235;SDS011;8734;59.272;17.780;2022-11-18T03:22:54;4.77;;;2.00;;
17235;SDS011;8734;59.272;17.780;2022-11-18T03:25:32;9.23;;;2.00;;
17235;SDS011;8734;59.272;17.780;2022-11-18T03:28:06;4.07;;;2.40;;
17235;SDS011;8734;59.272;17.780;2022-11-18T03:30:41;3.23;;;2.00;;
17235;SDS011;8734;59.272;17.780;2022-11-18T03:33:14;7.63;;;2.63;;
17235;SDS011;8734;59.272;17.780;2022-11-18T03:35:48;5.30;;;2.17;;
17235;SDS011;8734;59.272;17.780;2022-11-18T03:38:20;5.03;;;2.23;;
17235;SDS011;8734;59.272;17.780;2022-11-18T03:40:53;6.60;;;2.57;;
17235;SDS011;8734;59.272;17.780;2022-11-18T03:43:26;5.40;;;2.50;;
17235;SDS011;8734;59.272;17.780;2022-11-18T03:46:00;6.33;;;2.50;;
17235;SDS011;8734;59.272;17.780;2022-11-18T03:48:35;9.20;;;2.20;;
17235;SDS011;8734;59.272;17.780;2022-11-18T03:51:09;8.50;;;2.63;;
17235;SDS011;8734;59.272;17.780;2022-11-18T03:53:43;5.83;;;2.57;;
17235;SDS011;8734;59.272;17.780;2022-11-18T03:56:15;9.00;;;2.70;;
17235;SDS011;8734;59.272;17.780;2022-11-18T03:58:46;4.20;;;1.90;;
17235;SDS011;8734;59.272;17.780;2022-11-18T04:01:20;5.17;;;2.30;;
17235;SDS011;8734;59.272;17.780;2022-11-18T04:03:53;3.67;;;2.13;;
17235;SDS011;8734;59.272;17.780;2022-11-18T04:06:23;6.80;;;2.40;;
17235;SDS011;8734;59.272;17.780;2022-11-18T04:08:58;4.97;;;2.47;;
17235;SDS011;8734;59.272;17.780;2022-11-18T04:11:31;6.20;;;2.40;;
17235;SDS011;8734;59.272;17.780;2022-11-18T04:14:21;7.90;;;2.40;;
17235;SDS011;8734;59.272;17.780;2022-11-18T04:16:52;5.17;;;2.33;;
17235;SDS011;8734;59.272;17.780;2022-11-18T04:19:20;5.37;;;2.23;;
17235;SDS011;8734;59.272;17.780;2022-11-18T04:21:49;6.53;;;1.80;;
17235;SDS011;8734;59.272;17.780;2022-11-18T04:24:17;4.83;;;2.10;;
17235;SDS011;8734;59.272;17.780;2022-11-18T04:26:46;4.40;;;2.00;;
17235;SDS011;8734;59.272;17.780;2022-11-18T04:29:14;8.37;;;2.30;;
17235;SDS011;8734;59.272;17.780;2022-11-18T04:31:43;4.23;;;2.20;;
17235;SDS011;8734;59.272;17.780;2022-11-18T04:34:13;4.30;;;2.23;;
17235;SDS011;8734;59.272;17.780;2022-11-18T04:36:41;8.57;;;2.27;;
17235;SDS011;8734;59.272;17.780;2022-11-18T04:39:09;3.97;;;2.03;;
17235;SDS011;8734;59.272;17.780;2022-11-18T04:41:38;3.30;;;2.10;;
17235;SDS011;8734;59.272;17.780;2022-11-18T04:44:26;4.37;;;2.60;;
17235;SDS011;8734;59.272;17.780;2022-11-18T04:46:55;4.60;;;2.10;;
17235;SDS011;8734;59.272;17.780;2022-11-18T04:49:26;6.90;;;2.00;;
17235;SDS011;8734;59.272;17.780;2022-11-18T04:51:55;5.83;;;2.30;;
17235;SDS011;8734;59.272;17.780;2022-11-18T04:54:24;6.17;;;2.17;;
17235;SDS011;8734;59.272;17.780;2022-11-18T04:56:53;8.10;;;2.50;;
17235;SDS011;8734;59.272;17.780;2022-11-18T04:59:22;8.17;;;2.30;;
17235;SDS011;8734;59.272;17.780;2022-11-18T05:01:52;5.23;;;2.47;;
17235;SDS011;8734;59.272;17.780;2022-11-18T05:04:21;7.33;;;1.93;;
17235;SDS011;8734;59.272;17.780;2022-11-18T05:06:52;3.73;;;2.20;;
17235;SDS011;8734;59.272;17.780;2022-11-18T05:09:21;4.90;;;1.80;;
17235;SDS011;8734;59.272;17.780;2022-11-18T05:11:57;3.17;;;2.17;;
17235;SDS011;8734;59.272;17.780;2022-11-18T05:14:44;3.43;;;2.13;;
17235;SDS011;8734;59.272;17.780;2022-11-18T05:17:16;5.47;;;2.00;;
17235;SDS011;8734;59.272;17.780;2022-11-18T05:19:47;4.87;;;2.00;;
17235;SDS011;8734;59.272;17.780;2022-11-18T05:22:16;5.80;;;2.90;;
17235;SDS011;8734;59.272;17.780;2022-11-18T05:24:45;7.23;;;2.37;;
17235;SDS011;8734;59.272;17.780;2022-11-18T05:27:13;5.37;;;2.00;;
17235;SDS011;8734;59.272;17.780;2022-11-18T05:29:42;7.67;;;2.50;;
17235;SDS011;8734;59.272;17.780;2022-11-18T05:32:10;8.03;;;2.63;;
17235;SDS011;8734;59.272;17.780;2022-11-18T05:34:38;8.10;;;2.07;;
17235;SDS011;8734;59.272;17.780;2022-11-18T05:37:07;3.93;;;2.17;;
17235;SDS011;8734;59.272;17.780;2022-11-18T05:39:37;8.67;;;2.20;;
17235;SDS011;8734;59.272;17.780;2022-11-18T05:42:05;5.63;;;2.20;;
17235;SDS011;8734;59.272;17.780;2022-11-18T05:44:52;3.83;;;1.83;;
17235;SDS011;8734;59.272;17.780;2022-11-18T05:47:24;6.00;;;2.60;;
17235;SDS011;8734;59.272;17.780;2022-11-18T05:49:53;5.20;;;2.10;;
17235;SDS011;8734;59.272;17.780;2022-11-18T05:52:21;6.37;;;2.40;;
17235;SDS011;8734;59.272;17.780;2022-11-18T05:54:51;4.63;;;2.07;;
17235;SDS011;8734;59.272;17.780;2022-11-18T05:57:19;7.67;;;2.57;;
17235;SDS011;8734;59.272;17.780;2022-11-18T05:59:47;8.43;;;2.50;;
17235;SDS011;8734;59.272;17.780;2022-11-18T06:02:15;11.40;;;2.60;;
17235;SDS011;8734;59.272;17.780;2022-11-18T06:04:47;5.57;;;2.33;;
17235;SDS011;8734;59.272;17.780;2022-11-18T06:07:20;7.53;;;2.33;;
17235;SDS011;8734;59.272;17.780;2022-11-18T06:09:54;8.00;;;2.47;;
17235;SDS011;8734;59.272;17.780;2022-11-18T06:12:33;3.80;;;2.10;;
17235;SDS011;8734;59.272;17.780;2022-11-18T06:15:06;4.93;;;2.20;;
17235;SDS011;8734;59.272;17.780;2022-11-18T06:17:38;5.33;;;2.17;;
17235;SDS011;8734;59.272;17.780;2022-11-18T06:20:09;5.83;;;2.00;;
17235;SDS011;8734;59.272;17.780;2022-11-18T06:22:38;5.20;;;2.60;;
17235;SDS011;8734;59.272;17.780;2022-11-18T06:25:13;9.07;;;2.40;;
17235;SDS011;8734;59.272;17.780;2022-11-18T06:27:42;8.40;;;2.13;;
17235;SDS011;8734;59.272;17.780;2022-11-18T06:30:12;6.13;;;2.03;;
17235;SDS011;8734;59.272;17.780;2022-11-18T06:32:41;4.10;;;2.00;;
17235;SDS011;8734;59.272;17.780;2022-11-18T06:35:12;8.90;;;2.67;;
17235;SDS011;8734;59.272;17.780;2022-11-18T06:37:40;4.03;;;1.73;;
17235;SDS011;8734;59.272;17.780;2022-11-18T06:40:09;5.80;;;2.27;;
17235;SDS011;8734;59.272;17.780;2022-11-18T06:42:40;6.80;;;1.80;;
17235;SDS011;8734;59.272;17.780;2022-11-18T06:45:25;9.23;;;2.17;;
17235;SDS011;8734;59.272;17.780;2022-11-18T06:47:55;3.73;;;2.10;;
17235;SDS011;8734;59.272;17.780;2022-11-18T06:50:23;4.57;;;2.13;;
17235;SDS011;8734;59.272;17.780;2022-11-18T06:52:51;6.23;;;2.13;;
17235;SDS011;8734;59.272;17.780;2022-11-18T06:55:20;4.97;;;2.20;;
17235;SDS011;8734;59.272;17.780;2022-11-18T06:57:49;7.33;;;2.70;;
17235;SDS011;8734;59.272;17.780;2022-11-18T07:00:18;8.00;;;2.43;;
17235;SDS011;8734;59.272;17.780;2022-11-18T07:02:47;5.73;;;2.30;;
17235;SDS011;8734;59.272;17.780;2022-11-18T07:05:15;5.33;;;2.37;;
17235;SDS011;8734;59.272;17.780;2022-11-18T07:07:43;4.83;;;1.90;;
17235;SDS011;8734;59.272;17.780;2022-11-18T07:10:12;6.33;;;2.33;;
17235;SDS011;8734;59.272;17.780;2022-11-18T07:12:40;5.13;;;2.50;;
17235;SDS011;8734;59.272;17.780;2022-11-18T07:15:11;9.07;;;2.73;;
17235;SDS011;8734;59.272;17.780;2022-11-18T07:17:39;6.80;;;2.40;;
17235;SDS011;8734;59.272;17.780;2022-11-18T07:20:07;9.80;;;2.83;;
17235;SDS011;8734;59.272;17.780;2022-11-18T07:22:36;8.17;;;2.67;;
17235;SDS011;8734;59.272;17.780;2022-11-18T07:25:05;4.30;;;2.40;;
17235;SDS011;8734;59.272;17.780;2022-11-18T07:27:34;5.00;;;2.83;;
17235;SDS011;8734;59.272;17.780;2022-11-18T07:30:03;9.87;;;2.90;;
17235;SDS011;8734;59.272;17.780;2022-11-18T07:32:33;4.73;;;2.30;;
17235;SDS011;8734;59.272;17.780;2022-11-18T07:35:01;6.53;;;3.00;;
17235;SDS011;8734;59.272;17.780;2022-11-18T07:37:30;4.47;;;2.87;;
17235;SDS011;8734;59.272;17.780;2022-11-18T07:39:58;4.37;;;2.27;;
17235;SDS011;8734;59.272;17.780;2022-11-18T07:42:26;6.00;;;2.30;;
17235;SDS011;8734;59.272;17.780;2022-11-18T07:44:54;6.60;;;2.60;;
17235;SDS011;8734;59.272;17.780;2022-11-18T07:47:22;4.23;;;2.50;;
17235;SDS011;8734;59.272;17.780;2022-11-18T07:49:52;5.97;;;2.23;;
17235;SDS011;8734;59.272;17.780;2022-11-18T07:52:20;4.17;;;2.30;;
17235;SDS011;8734;59.272;17.780;2022-11-18T07:54:49;7.17;;;2.80;;
17235;SDS011;8734;59.272;17.780;2022-11-18T07:57:17;13.87;;;2.50;;
17235;SDS011;8734;59.272;17.780;2022-11-18T07:59:45;4.20;;;2.03;;
17235;SDS011;8734;59.272;17.780;2022-11-18T08:02:13;5.83;;;2.90;;
17235;SDS011;8734;59.272;17.780;2022-11-18T08:04:41;5.97;;;2.33;;
17235;SDS011;8734;59.272;17.780;2022-11-18T08:07:12;7.13;;;1.90;;
17235;SDS011;8734;59.272;17.780;2022-11-18T08:09:40;8.33;;;1.70;;
17235;SDS011;8734;59.272;17.780;2022-11-18T08:12:09;8.73;;;1.87;;
17235;SDS011;8734;59.272;17.780;2022-11-18T08:14:37;4.67;;;1.90;;
17235;SDS011;8734;59.272;17.780;2022-11-18T08:17:07;6.63;;;2.00;;
17235;SDS011;8734;59.272;17.780;2022-11-18T08:19:35;2.70;;;1.57;;
17235;SDS011;8734;59.272;17.780;2022-11-18T08:22:04;3.27;;;1.60;;
17235;SDS011;8734;59.272;17.780;2022-11-18T08:24:34;6.50;;;1.80;;
17235;SDS011;8734;59.272;17.780;2022-11-18T08:27:02;5.63;;;2.00;;
17235;SDS011;8734;59.272;17.780;2022-11-18T08:29:30;1.97;;;1.40;;
17235;SDS011;8734;59.272;17.780;2022-11-18T08:31:59;9.53;;;2.33;;
17235;SDS011;8734;59.272;17.780;2022-11-18T08:34:27;5.80;;;2.37;;
17235;SDS011;8734;59.272;17.780;2022-11-18T08:36:56;6.70;;;2.20;;
17235;SDS011;8734;59.272;17.780;2022-11-18T08:39:24;4.63;;;2.10;;
17235;SDS011;8734;59.272;17.780;2022-11-18T08:41:56;10.53;;;1.87;;
17235;SDS011;8734;59.272;17.780;2022-11-18T08:44:25;2.00;;;1.43;;
17235;SDS011;8734;59.272;17.780;2022-11-18T08:46:53;3.70;;;1.43;;
17235;SDS011;8734;59.272;17.780;2022-11-18T08:49:21;9.77;;;2.00;;
17235;SDS011;8734;59.272;17.780;2022-11-18T08:51:57;3.30;;;1.80;;
17235;SDS011;8734;59.272;17.780;2022-11-18T08:54:25;2.17;;;1.67;;
17235;SDS011;8734;59.272;17.780;2022-11-18T08:56:55;4.63;;;1.80;;
17235;SDS011;8734;59.272;17.780;2022-11-18T08:59:24;5.77;;;1.53;;
17235;SDS011;8734;59.272;17.780;2022-11-18T09:01:52;2.53;;;1.53;;
17235;SDS011;8734;59.272;17.780;2022-11-18T09:04:20;2.70;;;1.40;;
17235;SDS011;8734;59.272;17.780;2022-11-18T09:06:48;3.43;;;1.37;;
17235;SDS011;8734;59.272;17.780;2022-11-18T09:09:17;1.27;;;0.93;;
17235;SDS011;8734;59.272;17.780;2022-11-18T09:11:45;3.77;;;1.40;;
17235;SDS011;8734;59.272;17.780;2022-11-18T09:14:15;2.10;;;1.00;;
17235;SDS011;8734;59.272;17.780;2022-11-18T09:17:04;6.80;;;1.63;;
17235;SDS011;8734;59.272;17.780;2022-11-18T09:19:32;2.13;;;1.57;;
17235;SDS011;8734;59.272;17.780;2022-11-18T09:22:15;3.73;;;1.80;;
17235;SDS011;8734;59.272;17.780;2022-11-18T09:24:44;2.10;;;1.60;;
17235;SDS011;8734;59.272;17.780;2022-11-18T09:27:12;4.97;;;2.00;;
17235;SDS011;8734;59.272;17.780;2022-11-18T09:29:44;5.53;;;1.70;;
17235;SDS011;8734;59.272;17.780;2022-11-18T09:32:12;4.97;;;1.80;;
17235;SDS011;8734;59.272;17.780;2022-11-18T09:34:42;8.43;;;2.23;;
17235;SDS011;8734;59.272;17.780;2022-11-18T09:37:10;7.37;;;1.40;;
17235;SDS011;8734;59.272;17.780;2022-11-18T09:39:38;3.07;;;1.33;;
17235;SDS011;8734;59.272;17.780;2022-11-18T09:42:13;2.53;;;1.17;;
17235;SDS011;8734;59.272;17.780;2022-11-18T09:44:56;1.83;;;1.40;;
17235;SDS011;8734;59.272;17.780;2022-11-18T09:47:39;2.97;;;1.30;;
17235;SDS011;8734;59.272;17.780;2022-11-18T09:50:09;2.23;;;1.30;;
17235;SDS011;8734;59.272;17.780;2022-11-18T09:53:02;2.60;;;1.50;;
17235;SDS011;8734;59.272;17.780;2022-11-18T09:55:36;2.73;;;1.70;;
17235;SDS011;8734;59.272;17.780;2022-11-18T09:58:10;2.03;;;1.30;;
17235;SDS011;8734;59.272;17.780;2022-11-18T10:00:45;2.60;;;1.30;;
17235;SDS011;8734;59.272;17.780;2022-11-18T10:03:14;1.97;;;1.40;;
17235;SDS011;8734;59.272;17.780;2022-11-18T10:05:49;3.23;;;1.50;;
17235;SDS011;8734;59.272;17.780;2022-11-18T10:08:24;1.87;;;1.40;;
17235;SDS011;8734;59.272;17.780;2022-11-18T10:10:57;5.20;;;1.50;;
17235;SDS011;8734;59.272;17.780;2022-11-18T10:13:37;2.80;;;1.40;;
17235;SDS011;8734;59.272;17.780;2022-11-18T10:16:18;3.70;;;1.37;;
17235;SDS011;8734;59.272;17.780;2022-11-18T10:18:58;2.10;;;1.30;;
17235;SDS011;8734;59.272;17.780;2022-11-18T10:21:39;3.67;;;1.43;;
17235;SDS011;8734;59.272;17.780;2022-11-18T10:24:16;1.77;;;1.00;;
17235;SDS011;8734;59.272;17.780;2022-11-18T10:26:47;3.13;;;1.20;;
17235;SDS011;8734;59.272;17.780;2022-11-18T10:29:21;2.97;;;1.30;;
17235;SDS011;8734;59.272;17.780;2022-11-18T10:31:55;3.27;;;1.40;;
17235;SDS011;8734;59.272;17.780;2022-11-18T10:34:29;4.23;;;1.10;;
17235;SDS011;8734;59.272;17.780;2022-11-18T10:37:00;2.57;;;1.17;;
17235;SDS011;8734;59.272;17.780;2022-11-18T10:39:28;1.70;;;0.90;;
17235;SDS011;8734;59.272;17.780;2022-11-18T10:41:59;2.90;;;1.47;;
17235;SDS011;8734;59.272;17.780;2022-11-18T10:44:30;3.90;;;1.20;;
17235;SDS011;8734;59.272;17.780;2022-11-18T10:47:15;3.33;;;1.50;;
17235;SDS011;8734;59.272;17.780;2022-11-18T10:49:49;5.27;;;1.50;;
17235;SDS011;8734;59.272;17.780;2022-11-18T10:52:18;2.20;;;1.40;;
17235;SDS011;8734;59.272;17.780;2022-11-18T10:55:04;2.67;;;1.37;;
17235;SDS011;8734;59.272;17.780;2022-11-18T10:57:51;2.27;;;1.50;;
17235;SDS011;8734;59.272;17.780;2022-11-18T11:00:33;3.23;;;1.47;;
17235;SDS011;8734;59.272;17.780;2022-11-18T11:03:28;4.10;;;1.50;;
17235;SDS011;8734;59.272;17.780;2022-11-18T11:06:19;2.30;;;1.40;;
17235;SDS011;8734;59.272;17.780;2022-11-18T11:09:00;9.13;;;1.73;;
17235;SDS011;8734;59.272;17.780;2022-11-18T11:11:31;2.97;;;1.57;;
17235;SDS011;8734;59.272;17.780;2022-11-18T11:14:03;1.73;;;1.10;;
17235;SDS011;8734;59.272;17.780;2022-11-18T11:16:41;8.33;;;1.50;;
17235;SDS011;8734;59.272;17.780;2022-11-18T11:19:16;2.80;;;1.40;;
17235;SDS011;8734;59.272;17.780;2022-11-18T11:21:48;2.73;;;1.50;;
17235;SDS011;8734;59.272;17.780;2022-11-18T11:24:18;2.40;;;1.40;;
17235;SDS011;8734;59.272;17.780;2022-11-18T11:26:50;4.30;;;1.57;;
17235;SDS011;8734;59.272;17.780;2022-11-18T11:29:55;3.10;;;1.97;;
17235;SDS011;8734;59.272;17.780;2022-11-18T11:35:41;2.07;;;1.40;;
17235;SDS011;8734;59.272;17.780;2022-11-18T11:38:20;4.23;;;1.60;;
17235;SDS011;8734;59.272;17.780;2022-11-18T11:41:01;1.90;;;1.07;;
17235;SDS011;8734;59.272;17.780;2022-11-18T11:43:36;4.80;;;1.30;;
17235;SDS011;8734;59.272;17.780;2022-11-18T11:46:18;2.97;;;1.80;;
17235;SDS011;8734;59.272;17.780;2022-11-18T11:48:57;1.80;;;1.10;;
17235;SDS011;8734;59.272;17.780;2022-11-18T11:51:39;2.40;;;1.03;;
17235;SDS011;8734;59.272;17.780;2022-11-18T11:54:18;1.57;;;1.00;;
17235;SDS011;8734;59.272;17.780;2022-11-18T11:57:08;3.73;;;2.50;;
17235;SDS011;8734;59.272;17.780;2022-11-18T11:59:47;1.77;;;0.90;;
17235;SDS011;8734;59.272;17.780;2022-11-18T12:02:31;3.43;;;1.13;;
17235;SDS011;8734;59.272;17.780;2022-11-18T12:05:15;3.03;;;1.10;;
17235;SDS011;8734;59.272;17.780;2022-11-18T12:07:50;1.90;;;1.00;;
17235;SDS011;8734;59.272;17.780;2022-11-18T12:10:41;2.33;;;1.03;;
17235;SDS011;8734;59.272;17.780;2022-11-18T12:13:23;2.03;;;1.50;;
17235;SDS011;8734;59.272;17.780;2022-11-18T12:16:12;1.30;;;1.00;;
17235;SDS011;8734;59.272;17.780;2022-11-18T12:18:45;3.30;;;1.20;;
17235;SDS011;8734;59.272;17.780;2022-11-18T12:24:30;2.37;;;1.33;;
17235;SDS011;8734;59.272;17.780;2022-11-18T12:27:03;1.10;;;0.93;;
17235;SDS011;8734;59.272;17.780;2022-11-18T12:29:35;5.27;;;1.20;;
17235;SDS011;8734;59.272;17.780;2022-11-18T12:32:26;4.23;;;1.13;;
17235;SDS011;8734;59.272;17.780;2022-11-18T12:35:03;1.60;;;1.00;;
17235;SDS011;8734;59.272;17.780;2022-11-18T12:37:57;2.13;;;1.10;;
17235;SDS011;8734;59.272;17.780;2022-11-18T12:40:39;1.13;;;1.03;;
17235;SDS011;8734;59.272;17.780;2022-11-18T12:46:48;3.40;;;1.07;;
17235;SDS011;8734;59.272;17.780;2022-11-18T12:52:45;1.03;;;0.80;;
17235;SDS011;8734;59.272;17.780;2022-11-18T12:55:15;2.80;;;1.10;;
17235;SDS011;8734;59.272;17.780;2022-11-18T12:57:48;5.37;;;1.00;;
17235;SDS011;8734;59.272;17.780;2022-11-18T13:00:25;1.00;;;0.90;;
17235;SDS011;8734;59.272;17.780;2022-11-18T13:03:25;5.23;;;0.90;;
17235;SDS011;8734;59.272;17.780;2022-11-18T13:05:59;0.80;;;0.80;;
17235;SDS011;8734;59.272;17.780;2022-11-18T13:08:31;1.27;;;0.80;;
17235;SDS011;8734;59.272;17.780;2022-11-18T13:11:13;1.40;;;1.00;;
17235;SDS011;8734;59.272;17.780;2022-11-18T13:14:03;3.53;;;1.27;;
17235;SDS011;8734;59.272;17.780;2022-11-18T13:16:50;1.70;;;1.00;;
17235;SDS011;8734;59.272;17.780;2022-11-18T13:19:36;1.57;;;0.90;;
17235;SDS011;8734;59.272;17.780;2022-11-18T13:22:12;2.63;;;1.10;;
17235;SDS011;8734;59.272;17.780;2022-11-18T13:25:02;3.30;;;1.13;;
17235;SDS011;8734;59.272;17.780;2022-11-18T13:27:35;1.10;;;0.90;;
17235;SDS011;8734;59.272;17.780;2022-11-18T13:30:13;3.67;;;1.00;;
17235;SDS011;8734;59.272;17.780;2022-11-18T13:32:44;5.30;;;1.47;;
17235;SDS011;8734;59.272;17.780;2022-11-18T13:35:15;2.47;;;0.90;;
17235;SDS011;8734;59.272;17.780;2022-11-18T13:37:48;4.20;;;1.00;;
17235;SDS011;8734;59.272;17.780;2022-11-18T13:40:21;2.33;;;0.93;;
17235;SDS011;8734;59.272;17.780;2022-11-18T13:42:51;2.83;;;1.00;;
17235;SDS011;8734;59.272;17.780;2022-11-18T13:45:20;2.27;;;0.90;;
17235;SDS011;8734;59.272;17.780;2022-11-18T13:47:53;2.60;;;0.93;;
17235;SDS011;8734;59.272;17.780;2022-11-18T13:50:26;1.60;;;0.87;;
17235;SDS011;8734;59.272;17.780;2022-11-18T13:53:00;1.40;;;1.07;;
17235;SDS011;8734;59.272;17.780;2022-11-18T13:55:35;7.90;;;1.13;;
17235;SDS011;8734;59.272;17.780;2022-11-18T13:58:18;7.97;;;1.27;;
17235;SDS011;8734;59.272;17.780;2022-11-18T14:01:14;2.47;;;1.00;;
17235;SDS011;8734;59.272;17.780;2022-11-18T14:03:47;4.17;;;1.33;;
17235;SDS011;8734;59.272;17.780;2022-11-18T14:06:23;1.93;;;1.03;;
17235;SDS011;8734;59.272;17.780;2022-11-18T14:09:02;4.23;;;1.07;;
17235;SDS011;8734;59.272;17.780;2022-11-18T14:11:33;10.97;;;1.20;;
17235;SDS011;8734;59.272;17.780;2022-11-18T14:14:04;1.80;;;1.20;;
17235;SDS011;8734;59.272;17.780;2022-11-18T14:16:35;2.50;;;1.00;;
17235;SDS011;8734;59.272;17.780;2022-11-18T14:19:05;2.40;;;0.90;;
17235;SDS011;8734;59.272;17.780;2022-11-18T14:21:34;2.70;;;0.90;;
17235;SDS011;8734;59.272;17.780;2022-11-18T14:24:04;5.67;;;0.93;;
17235;SDS011;8734;59.272;17.780;2022-11-18T14:26:33;6.07;;;1.30;;
17235;SDS011;8734;59.272;17.780;2022-11-18T14:29:13;2.97;;;1.03;;
17235;SDS011;8734;59.272;17.780;2022-11-18T14:34:40;7.93;;;1.20;;
17235;SDS011;8734;59.272;17.780;2022-11-18T14:37:09;3.83;;;1.00;;
17235;SDS011;8734;59.272;17.780;2022-11-18T14:39:39;13.37;;;1.30;;
17235;SDS011;8734;59.272;17.780;2022-11-18T14:42:09;7.50;;;1.10;;
17235;SDS011;8734;59.272;17.780;2022-11-18T14:44:39;1.60;;;1.27;;
17235;SDS011;8734;59.272;17.780;2022-11-18T14:47:10;3.10;;;0.90;;
17235;SDS011;8734;59.272;17.780;2022-11-18T14:49:47;3.40;;;1.20;;
17235;SDS011;8734;59.272;17.780;2022-11-18T14:52:15;4.77;;;1.07;;
17235;SDS011;8734;59.272;17.780;2022-11-18T14:54:43;2.03;;;1.20;;
17235;SDS011;8734;59.272;17.780;2022-11-18T14:57:13;5.70;;;1.23;;
17235;SDS011;8734;59.272;17.780;2022-11-18T14:59:44;1.20;;;0.80;;
17235;SDS011;8734;59.272;17.780;2022-11-18T15:02:13;2.87;;;1.00;;
17235;SDS011;8734;59.272;17.780;2022-11-18T15:04:42;2.90;;;1.40;;
17235;SDS011;8734;59.272;17.780;2022-11-18T15:07:13;2.00;;;1.00;;
17235;SDS011;8734;59.272;17.780;2022-11-18T15:09:49;2.33;;;1.40;;
17235;SDS011;8734;59.272;17.780;2022-11-18T15:12:17;1.80;;;1.20;;
17235;SDS011;8734;59.272;17.780;2022-11-18T15:14:45;1.70;;;1.23;;
17235;SDS011;8734;59.272;17.780;2022-11-18T15:17:14;2.63;;;1.20;;
17235;SDS011;8734;59.272;17.780;2022-11-18T15:19:45;3.40;;;1.10;;
17235;SDS011;8734;59.272;17.780;2022-11-18T15:22:15;3.50;;;1.17;;
17235;SDS011;8734;59.272;17.780;2022-11-18T15:24:44;1.40;;;0.90;;
17235;SDS011;8734;59.272;17.780;2022-11-18T15:27:14;5.97;;;1.13;;
17235;SDS011;8734;59.272;17.780;2022-11-18T15:29:42;0.97;;;0.70;;
17235;SDS011;8734;59.272;17.780;2022-11-18T15:32:10;1.27;;;1.10;;
17235;SDS011;8734;59.272;17.780;2022-11-18T15:34:38;1.40;;;1.30;;
17235;SDS011;8734;59.272;17.780;2022-11-18T15:37:08;1.47;;;1.03;;